PWSweather.com
Personal Weather Stations
Station Observations
MARRWS
Allansford VictoriaAU 3277

Allansford VictoriaAU 3277

Lat: -38.4003683814149, Lon: 142.569826841354

Elevation: 36

Station Type: Fine Offset X7062

http://home.vicnet.net.au/~marr/Weather/

Latest ConditionsUpdated 4:30:04 AM GMT+10:10 Saturday, Jan 31, 2015
Currently Today's Max Today's Min Today's Average
Temperature 61.5°F16.4°C 61.7°F16.5°C 60.4°F15.8°C 61.2°F16.2°C
Dew Point 52.8°F11.6°C 55.6°F13.1°C 52.6°F11.4°C 54.2°F12.3°C
Winds 7.0 mph SSE11.3 kmh SSE 7.6 mph SE12.2 kmh SE - 6.0 mph 9.7 kmh
Wind Gusts 15.2 mph24.5 kmh 16.8 mph27.0 kmh - -
Humidity 73% 81% 73% 78%
Pressure 29.68 in1005.1 mb 29.70 in1005.8 mb 29.65 in1004.1 mb -
Hour Temp Dew Point Humidity Winds Wind Gusts Pressure Precip Precip Rate Daily Precip Total
04:30 AM 61.5°F16.4°C 52.8°F11.6°C 73% 7.0 mph SSE11.3 kmh SSE 15.2 mph24.5 kmh 29.68 in1005.1 mb 0.00 in0.0 mm 0.00 in/hr0.0 mm/hr 0.00 in0.0 mm
04:20 AM 61.3°F16.3°C 52.6°F11.4°C 73% 7.3 mph SSE11.7 kmh SSE 15.2 mph24.5 kmh 29.67 in1004.7 mb 0.00 in0.0 mm 0.00 in/hr0.0 mm/hr 0.00 in0.0 mm
04:10 AM 61.7°F16.5°C 53.3°F11.8°C 74% 6.7 mph SE10.8 kmh SE 15.9 mph25.6 kmh 29.67 in1004.7 mb 0.00 in0.0 mm 0.00 in/hr0.0 mm/hr 0.00 in0.0 mm
04:00 AM 61.5°F16.4°C 52.8°F11.6°C 73% 7.6 mph SE12.2 kmh SE 16.8 mph27.0 kmh 29.67 in1004.7 mb 0.00 in0.0 mm 0.00 in/hr0.0 mm/hr 0.00 in0.0 mm
03:50 AM 61.5°F16.4°C 54.3°F12.4°C 77% 6.9 mph SSE11.1 kmh SSE 15.2 mph24.5 kmh 29.66 in1004.4 mb 0.00 in0.0 mm 0.00 in/hr0.0 mm/hr 0.00 in0.0 mm
03:40 AM 61.7°F16.5°C 54.1°F12.3°C 76% 7.2 mph S11.6 kmh S 12.1 mph19.5 kmh 29.67 in1004.7 mb 0.00 in0.0 mm 0.00 in/hr0.0 mm/hr 0.00 in0.0 mm
03:20 AM 61.2°F16.2°C 54.6°F12.6°C 79% 5.8 mph SSE9.3 kmh SSE 12.1 mph19.5 kmh 29.65 in1004.1 mb 0.00 in0.0 mm 0.00 in/hr0.0 mm/hr 0.00 in0.0 mm
03:10 AM 61.2°F16.2°C 54.6°F12.6°C 79% 3.9 mph SSE6.3 kmh SSE 10.7 mph17.2 kmh 29.65 in1004.1 mb 0.00 in0.0 mm 0.00 in/hr0.0 mm/hr 0.00 in0.0 mm
03:00 AM 61.0°F16.1°C 52.6°F11.4°C 74% 6.2 mph SSE10.0 kmh SSE 13.6 mph21.9 kmh 29.66 in1004.4 mb 0.00 in0.0 mm 0.00 in/hr0.0 mm/hr 0.00 in0.0 mm
02:50 AM 61.0°F16.1°C 54.4°F12.4°C 79% 7.3 mph SE11.7 kmh SE 15.2 mph24.5 kmh 29.66 in1004.4 mb 0.00 in0.0 mm 0.00 in/hr0.0 mm/hr 0.00 in0.0 mm
02:40 AM 61.3°F16.3°C 55.5°F13.1°C 81% 6.8 mph S10.9 kmh S 16.8 mph27.0 kmh 29.66 in1004.4 mb 0.00 in0.0 mm 0.00 in/hr0.0 mm/hr 0.00 in0.0 mm
02:30 AM 60.8°F16.0°C 54.9°F12.7°C 81% 4.6 mph SSE7.4 kmh SSE 9.2 mph14.8 kmh 29.66 in1004.4 mb 0.00 in0.0 mm 0.00 in/hr0.0 mm/hr 0.00 in0.0 mm
02:20 AM 61.3°F16.3°C 54.8°F12.7°C 79% 6.0 mph SE9.7 kmh SE 11.4 mph18.3 kmh 29.66 in1004.4 mb 0.00 in0.0 mm 0.00 in/hr0.0 mm/hr 0.00 in0.0 mm
02:10 AM 61.5°F16.4°C 55.6°F13.1°C 81% 5.8 mph S9.3 kmh S 14.5 mph23.3 kmh 29.66 in1004.4 mb 0.00 in0.0 mm 0.00 in/hr0.0 mm/hr 0.00 in0.0 mm
02:00 AM 61.3°F16.3°C 55.1°F12.8°C 80% 5.0 mph SE8.0 kmh SE 13.6 mph21.9 kmh 29.67 in1004.7 mb 0.00 in0.0 mm 0.00 in/hr0.0 mm/hr 0.00 in0.0 mm
01:40 AM 61.5°F16.4°C 53.9°F12.2°C 76% 5.1 mph SSE8.2 kmh SSE 11.4 mph18.3 kmh 29.68 in1005.1 mb 0.00 in0.0 mm 0.00 in/hr0.0 mm/hr 0.00 in0.0 mm
01:30 AM 61.3°F16.3°C 55.1°F12.8°C 80% 5.3 mph S8.5 kmh S 12.1 mph19.5 kmh 29.68 in1005.1 mb 0.00 in0.0 mm 0.00 in/hr0.0 mm/hr 0.00 in0.0 mm
01:20 AM 61.3°F16.3°C 55.1°F12.8°C 80% 5.4 mph SSE8.7 kmh SSE 13.0 mph20.9 kmh 29.68 in1005.1 mb 0.00 in0.0 mm 0.00 in/hr0.0 mm/hr 0.00 in0.0 mm
01:10 AM 60.8°F16.0°C 54.3°F12.4°C 79% 5.7 mph SE9.2 kmh SE 13.0 mph20.9 kmh 29.68 in1005.1 mb 0.00 in0.0 mm 0.00 in/hr0.0 mm/hr 0.00 in0.0 mm
12:50 AM 61.3°F16.3°C 54.8°F12.7°C 79% 5.9 mph SSE9.5 kmh SSE 13.6 mph21.9 kmh 29.68 in1005.1 mb 0.00 in0.0 mm 0.00 in/hr0.0 mm/hr 0.00 in0.0 mm
12:40 AM 60.4°F15.8°C 53.2°F11.8°C 77% 5.4 mph SE8.7 kmh SE 11.4 mph18.3 kmh 29.68 in1005.1 mb 0.00 in0.0 mm 0.00 in/hr0.0 mm/hr 0.00 in0.0 mm
12:30 AM 61.3°F16.3°C 54.8°F12.7°C 79% 6.1 mph SSE9.8 kmh SSE 13.0 mph20.9 kmh 29.69 in1005.4 mb 0.00 in0.0 mm 0.00 in/hr0.0 mm/hr 0.00 in0.0 mm
12:20 AM 60.8°F16.0°C 54.3°F12.4°C 79% 3.9 mph SSE6.3 kmh SSE 9.8 mph15.8 kmh 29.69 in1005.4 mb 0.00 in0.0 mm 0.00 in/hr0.0 mm/hr 0.00 in0.0 mm
12:10 AM 61.0°F16.1°C 53.7°F12.1°C 77% 6.4 mph SSE10.3 kmh SSE 15.2 mph24.5 kmh 29.70 in1005.8 mb 0.00 in0.0 mm 0.00 in/hr0.0 mm/hr 0.00 in0.0 mm
12:00 AM 61.0°F16.1°C 54.4°F12.4°C 79% 5.8 mph SE9.3 kmh SE 12.1 mph19.5 kmh 29.70 in1005.8 mb 0.00 in0.0 mm 0.00 in/hr0.0 mm/hr 0.00 in0.0 mm